createdAt,value
2019-02-17T00:01:21.994Z,7.80
2019-02-17T00:03:48.996Z,7.80
2019-02-17T00:06:16.928Z,7.80
2019-02-17T00:08:44.517Z,7.80
2019-02-17T00:11:11.598Z,7.60
2019-02-17T00:13:38.704Z,7.70
2019-02-17T00:16:06.813Z,7.70
2019-02-17T00:18:35.431Z,7.80
2019-02-17T00:21:02.605Z,7.60
2019-02-17T00:23:29.687Z,7.50
2019-02-17T00:25:56.880Z,7.60
2019-02-17T00:28:23.859Z,7.60
2019-02-17T00:30:51.827Z,7.60
2019-02-17T00:33:19.152Z,7.80
2019-02-17T00:35:46.475Z,7.80
2019-02-17T00:38:13.601Z,7.70
2019-02-17T00:40:41.007Z,7.70
2019-02-17T00:43:09.351Z,7.80
2019-02-17T00:45:36.632Z,7.90
2019-02-17T00:48:04.709Z,7.90
2019-02-17T00:50:32.409Z,7.90
2019-02-17T00:52:59.563Z,7.60
2019-02-17T00:55:26.852Z,7.50
2019-02-17T00:57:54.536Z,7.40
2019-02-17T01:00:21.794Z,7.40
2019-02-17T01:02:49.151Z,7.50
2019-02-17T01:05:17.403Z,7.50
2019-02-17T01:07:44.671Z,7.50
2019-02-17T01:10:12.837Z,7.50
2019-02-17T01:12:40.204Z,7.50
2019-02-17T01:15:08.495Z,7.70
2019-02-17T01:17:36.112Z,7.80
2019-02-17T01:20:03.659Z,7.90
2019-02-17T01:22:31.545Z,7.90
2019-02-17T01:24:59.069Z,7.80
2019-02-17T01:27:26.580Z,7.80
2019-02-17T01:29:54.592Z,7.80
2019-02-17T01:32:22.340Z,7.50
2019-02-17T01:34:50.895Z,7.60
2019-02-17T01:37:17.996Z,7.60
2019-02-17T01:39:52.655Z,7.40
2019-02-17T01:42:20.068Z,7.50
2019-02-17T01:44:47.103Z,7.50
2019-02-17T01:47:14.236Z,7.40
2019-02-17T01:49:41.391Z,7.30
2019-02-17T01:52:08.811Z,7.20
2019-02-17T01:54:36.208Z,7.30
2019-02-17T01:57:03.403Z,7.30
2019-02-17T01:59:31.002Z,7.20
2019-02-17T02:01:59.112Z,7.20
2019-02-17T02:04:27.248Z,7.30
2019-02-17T02:06:54.553Z,7.30
2019-02-17T02:09:21.740Z,7.40
2019-02-17T02:11:49.039Z,7.30
2019-02-17T02:14:16.361Z,7.40
2019-02-17T02:16:44.219Z,7.30
2019-02-17T02:19:12.293Z,7.20
2019-02-17T02:21:40.199Z,7.30
2019-02-17T02:24:08.796Z,7.30
2019-02-17T02:26:35.932Z,7.50
2019-02-17T02:29:03.264Z,7.50
2019-02-17T02:31:30.459Z,7.30
2019-02-17T02:33:57.367Z,7.40
2019-02-17T02:36:24.288Z,7.40
2019-02-17T02:38:51.507Z,7.20
2019-02-17T02:41:20.119Z,7.10
2019-02-17T02:43:47.214Z,7.20
2019-02-17T02:46:14.900Z,7.20
2019-02-17T02:48:43.208Z,7.20
2019-02-17T02:51:10.885Z,7.30
2019-02-17T02:53:38.996Z,7.40
2019-02-17T02:56:06.830Z,7.40
2019-02-17T02:58:34.935Z,7.40
2019-02-17T03:01:03.568Z,7.30
2019-02-17T03:03:30.751Z,7.20
2019-02-17T03:06:14.792Z,7.30
2019-02-17T03:08:42.808Z,7.30
2019-02-17T03:11:09.832Z,7.30
2019-02-17T03:13:36.864Z,7.20
2019-02-17T03:16:03.896Z,7.10
2019-02-17T03:18:31.327Z,7.20
2019-02-17T03:20:59.101Z,7.20
2019-02-17T03:23:26.290Z,7.10
2019-02-17T03:25:53.856Z,7.00
2019-02-17T03:28:20.839Z,7.10
2019-02-17T03:30:48.165Z,7.10
2019-02-17T03:33:16.089Z,7.10
2019-02-17T03:35:45.132Z,7.10
2019-02-17T03:38:13.338Z,7.10
2019-02-17T03:40:40.349Z,7.20
2019-02-17T03:43:08.155Z,7.10
2019-02-17T03:45:35.384Z,6.90
2019-02-17T03:48:02.666Z,6.80
2019-02-17T03:50:29.704Z,6.60
2019-02-17T03:52:57.604Z,6.60
2019-02-17T03:55:25.878Z,6.60
2019-02-17T03:57:52.928Z,6.80
2019-02-17T04:00:20.236Z,6.90
2019-02-17T04:02:48.115Z,6.90
2019-02-17T04:05:16.079Z,6.90
2019-02-17T04:07:42.970Z,6.80
2019-02-17T04:10:10.129Z,6.90
2019-02-17T04:12:38.556Z,6.90
2019-02-17T04:15:06.269Z,6.90
2019-02-17T04:17:33.647Z,6.90
2019-02-17T04:20:00.643Z,6.70
2019-02-17T04:22:27.652Z,6.80
2019-02-17T04:24:55.598Z,6.90
2019-02-17T04:27:23.409Z,6.90
2019-02-17T04:29:51.075Z,6.90
2019-02-17T04:32:18.219Z,6.70
2019-02-17T04:34:45.650Z,6.80
2019-02-17T04:37:12.845Z,6.80
2019-02-17T04:39:40.553Z,6.70
2019-02-17T04:42:08.102Z,6.70
2019-02-17T04:44:35.887Z,6.80
2019-02-17T04:47:03.984Z,6.90
2019-02-17T04:49:30.875Z,6.80
2019-02-17T04:51:59.932Z,6.90
2019-02-17T04:54:27.333Z,6.80
2019-02-17T04:56:55.575Z,6.80
2019-02-17T04:59:22.876Z,6.80
2019-02-17T05:01:50.359Z,6.70
2019-02-17T05:04:19.271Z,6.80
2019-02-17T05:06:46.991Z,6.70
2019-02-17T05:09:13.987Z,6.60
2019-02-17T05:11:41.423Z,6.70
2019-02-17T05:14:08.915Z,6.60
2019-02-17T05:16:36.555Z,6.60
2019-02-17T05:19:03.891Z,6.70
2019-02-17T05:21:31.969Z,6.70
2019-02-17T05:23:59.127Z,6.60
2019-02-17T05:26:26.924Z,6.60
2019-02-17T05:28:56.487Z,6.60
2019-02-17T05:31:23.847Z,6.70
2019-02-17T05:33:51.773Z,6.60
2019-02-17T05:36:19.180Z,6.50
2019-02-17T05:38:47.397Z,6.70
2019-02-17T05:41:14.804Z,6.50
2019-02-17T05:43:42.601Z,6.30
2019-02-17T05:46:10.855Z,6.40
2019-02-17T05:48:39.652Z,6.50
2019-02-17T05:51:06.787Z,6.50
2019-02-17T05:53:34.517Z,6.40
2019-02-17T05:56:02.236Z,6.60
2019-02-17T05:58:31.244Z,6.50
2019-02-17T06:01:03.960Z,6.40
2019-02-17T06:03:31.110Z,6.40
2019-02-17T06:05:59.204Z,6.60
2019-02-17T06:08:27.400Z,6.50
2019-02-17T06:10:54.273Z,6.40
2019-02-17T06:13:22.806Z,6.50
2019-02-17T06:15:51.871Z,6.50
2019-02-17T06:18:19.109Z,6.60
2019-02-17T06:20:46.857Z,6.70
2019-02-17T06:23:14.018Z,6.70
2019-02-17T06:25:41.765Z,6.70
2019-02-17T06:28:10.332Z,6.60
2019-02-17T06:30:37.968Z,6.60
2019-02-17T06:33:05.419Z,6.60
2019-02-17T06:35:32.317Z,6.50
2019-02-17T06:37:59.204Z,6.50
2019-02-17T06:40:26.830Z,6.60
2019-02-17T06:42:53.713Z,6.60
2019-02-17T06:45:21.892Z,6.70
2019-02-17T06:47:48.911Z,6.60
2019-02-17T06:50:16.072Z,6.60
2019-02-17T06:52:43.467Z,6.60
2019-02-17T06:55:30.939Z,6.60
2019-02-17T06:57:58.945Z,6.60
2019-02-17T07:00:45.532Z,6.60
2019-02-17T07:03:14.533Z,6.60
2019-02-17T07:05:53.168Z,6.70
2019-02-17T07:08:22.535Z,6.60
2019-02-17T07:10:49.504Z,6.60
2019-02-17T07:13:16.792Z,6.60
2019-02-17T07:15:45.444Z,6.70
2019-02-17T07:18:12.952Z,6.80
2019-02-17T07:20:40.099Z,6.80
2019-02-17T07:23:07.419Z,6.80
2019-02-17T07:25:35.283Z,6.70
2019-02-17T07:28:04.205Z,6.80
2019-02-17T07:30:32.499Z,6.80
2019-02-17T07:32:59.519Z,6.80
2019-02-17T07:35:26.708Z,6.90
2019-02-17T07:37:54.028Z,6.90
2019-02-17T07:40:22.005Z,6.90
2019-02-17T07:42:49.571Z,7.00
2019-02-17T07:45:16.892Z,6.90
2019-02-17T07:47:44.008Z,7.00
2019-02-17T07:50:11.123Z,6.90
2019-02-17T07:52:38.671Z,7.00
2019-02-17T07:55:08.127Z,7.10
2019-02-17T07:57:36.200Z,7.10
2019-02-17T08:00:04.051Z,7.10
2019-02-17T08:02:32.663Z,7.10
2019-02-17T08:04:59.647Z,7.20
2019-02-17T08:07:27.707Z,7.10
2019-02-17T08:09:55.164Z,7.20
2019-02-17T08:12:22.007Z,7.30
2019-02-17T08:14:50.039Z,7.30
2019-02-17T08:17:17.191Z,7.40
2019-02-17T08:19:44.102Z,7.40
2019-02-17T08:22:11.724Z,7.50
2019-02-17T08:24:39.543Z,7.50
2019-02-17T08:27:06.443Z,7.50
2019-02-17T08:29:33.415Z,7.60
2019-02-17T08:32:01.220Z,7.60
2019-02-17T08:34:28.862Z,7.80
2019-02-17T08:36:56.241Z,7.90
2019-02-17T08:39:23.259Z,8.10
2019-02-17T08:41:50.153Z,8.10
2019-02-17T08:44:17.287Z,8.30
2019-02-17T08:46:45.220Z,8.30
2019-02-17T08:49:13.743Z,8.40
2019-02-17T08:51:41.007Z,8.50
2019-02-17T08:54:08.852Z,8.60
2019-02-17T08:56:36.644Z,8.70
2019-02-17T08:59:03.939Z,8.80
2019-02-17T09:01:31.559Z,8.90
2019-02-17T09:03:59.664Z,8.90
2019-02-17T09:06:26.916Z,9.00
2019-02-17T09:08:54.823Z,9.10
2019-02-17T09:11:22.539Z,9.20
2019-02-17T09:13:50.091Z,9.30
2019-02-17T09:16:17.778Z,9.30
2019-02-17T09:18:44.892Z,9.40
2019-02-17T09:21:13.510Z,9.40
2019-02-17T09:23:40.739Z,9.50
2019-02-17T09:26:09.747Z,9.60
2019-02-17T09:28:37.427Z,9.60
2019-02-17T09:31:05.387Z,9.60
2019-02-17T09:33:32.712Z,9.70
2019-02-17T09:36:00.171Z,9.70
2019-02-17T09:38:27.359Z,9.80
2019-02-17T09:40:54.902Z,9.80
2019-02-17T09:43:23.292Z,9.80
2019-02-17T09:45:50.145Z,9.80
2019-02-17T09:48:18.040Z,9.80
2019-02-17T09:50:45.155Z,9.90
2019-02-17T09:53:13.668Z,9.90
2019-02-17T09:55:41.305Z,10.00
2019-02-17T09:58:10.632Z,10.10
2019-02-17T10:00:38.880Z,10.10
2019-02-17T10:03:06.064Z,10.10
2019-02-17T10:05:34.056Z,10.20
2019-02-17T10:08:02.110Z,10.30
2019-02-17T10:10:29.439Z,10.30
2019-02-17T10:12:57.871Z,10.30
2019-02-17T10:15:25.094Z,10.40
2019-02-17T10:17:52.430Z,10.40
2019-02-17T10:20:20.040Z,10.50
2019-02-17T10:22:47.721Z,10.50
2019-02-17T10:25:14.876Z,10.50
2019-02-17T10:27:42.431Z,10.50
2019-02-17T10:30:11.125Z,10.60
2019-02-17T10:32:39.274Z,10.60
2019-02-17T10:35:07.153Z,10.70
2019-02-17T10:37:34.635Z,10.70
2019-02-17T10:40:01.743Z,10.70
2019-02-17T10:42:30.500Z,10.70
2019-02-17T10:44:58.198Z,10.80
2019-02-17T10:47:25.810Z,10.80
2019-02-17T10:49:54.300Z,10.90
2019-02-17T10:52:21.786Z,10.90
2019-02-17T10:54:48.947Z,10.90
2019-02-17T10:57:16.725Z,10.90
2019-02-17T10:59:44.154Z,11.00
2019-02-17T11:02:12.908Z,10.90
2019-02-17T11:04:40.418Z,11.00
2019-02-17T11:07:08.592Z,11.00
2019-02-17T11:09:36.079Z,11.00
2019-02-17T11:12:03.224Z,11.10
2019-02-17T11:14:30.204Z,11.10
2019-02-17T11:16:58.145Z,11.10
2019-02-17T11:19:25.339Z,11.10
2019-02-17T11:21:54.676Z,11.10
2019-02-17T11:24:22.311Z,11.10
2019-02-17T11:26:49.704Z,11.10
2019-02-17T11:29:16.827Z,11.10
2019-02-17T11:31:44.108Z,11.20
2019-02-17T11:34:11.251Z,11.10
2019-02-17T11:36:38.428Z,11.20
2019-02-17T11:39:09.076Z,11.20
2019-02-17T11:41:36.365Z,11.20
2019-02-17T11:44:04.553Z,11.20
2019-02-17T11:46:31.622Z,11.30
2019-02-17T11:48:59.536Z,11.30
2019-02-17T11:51:27.379Z,11.30
2019-02-17T11:53:55.604Z,11.30
2019-02-17T11:56:23.972Z,11.30
2019-02-17T11:58:51.224Z,11.30
2019-02-17T12:01:18.367Z,11.30
2019-02-17T12:03:45.444Z,11.40
2019-02-17T12:06:13.203Z,11.40
2019-02-17T12:08:45.396Z,11.40
2019-02-17T12:11:13.112Z,11.40
2019-02-17T12:13:41.144Z,11.40
2019-02-17T12:16:08.737Z,11.30
2019-02-17T12:18:36.417Z,11.40
2019-02-17T12:21:19.209Z,11.40
2019-02-17T12:24:06.076Z,11.40
2019-02-17T12:26:44.127Z,11.40
2019-02-17T12:29:20.441Z,11.40
2019-02-17T12:31:47.763Z,11.30
2019-02-17T12:34:15.375Z,11.40
2019-02-17T12:36:42.472Z,11.40
2019-02-17T12:39:10.856Z,11.40
2019-02-17T12:41:38.427Z,11.30
2019-02-17T12:44:06.001Z,11.30
2019-02-17T12:46:34.003Z,11.30
2019-02-17T12:49:01.839Z,11.40
2019-02-17T12:51:29.542Z,11.50
2019-02-17T12:53:58.412Z,11.50
2019-02-17T12:56:26.099Z,11.60
2019-02-17T12:58:54.136Z,11.50
2019-02-17T13:01:22.019Z,11.50
2019-02-17T13:03:49.660Z,11.50
2019-02-17T13:06:17.302Z,11.60
2019-02-17T13:08:44.993Z,11.60
2019-02-17T13:11:13.030Z,11.60
2019-02-17T13:13:40.794Z,11.60
2019-02-17T13:16:08.272Z,11.60
2019-02-17T13:18:35.791Z,11.60
2019-02-17T13:21:02.895Z,11.60
2019-02-17T13:23:30.661Z,11.60
2019-02-17T13:25:58.240Z,11.60
2019-02-17T13:28:25.511Z,11.60
2019-02-17T13:30:53.805Z,11.60
2019-02-17T13:33:21.107Z,11.60
2019-02-17T13:35:49.473Z,11.50
2019-02-17T13:38:17.920Z,11.70
2019-02-17T13:40:45.396Z,11.60
2019-02-17T13:43:12.560Z,11.60
2019-02-17T13:45:40.539Z,11.60
2019-02-17T13:48:07.832Z,11.60
2019-02-17T13:50:36.748Z,11.60
2019-02-17T13:53:11.354Z,11.60
2019-02-17T13:55:33.916Z,11.60
2019-02-17T13:58:01.329Z,11.60
2019-02-17T14:00:28.822Z,11.60
2019-02-17T14:02:55.887Z,11.60
2019-02-17T14:05:23.071Z,11.60
2019-02-17T14:07:50.596Z,11.60
2019-02-17T14:10:18.133Z,11.70
2019-02-17T14:12:45.679Z,11.60
2019-02-17T14:15:13.019Z,11.70
2019-02-17T14:17:40.461Z,11.70
2019-02-17T14:20:08.172Z,11.70
2019-02-17T14:22:35.456Z,11.70
2019-02-17T14:25:02.676Z,11.70
2019-02-17T14:27:30.428Z,11.70
2019-02-17T14:29:57.686Z,11.70
2019-02-17T14:32:25.127Z,11.70
2019-02-17T14:34:53.112Z,11.70
2019-02-17T14:37:20.782Z,11.80
2019-02-17T14:39:48.400Z,11.80
2019-02-17T14:42:16.341Z,11.80
2019-02-17T14:44:43.307Z,11.80
2019-02-17T14:47:11.083Z,11.80
2019-02-17T14:49:38.004Z,11.80
2019-02-17T14:52:05.745Z,11.80
2019-02-17T14:54:34.076Z,11.80
2019-02-17T14:57:01.836Z,11.80
2019-02-17T14:59:29.670Z,11.80
2019-02-17T15:01:57.821Z,11.80
2019-02-17T15:04:25.643Z,11.80
2019-02-17T15:06:53.498Z,11.80
2019-02-17T15:09:21.671Z,11.80
2019-02-17T15:11:51.687Z,11.80
2019-02-17T15:14:19.921Z,11.80
2019-02-17T15:16:47.295Z,11.80
2019-02-17T15:19:15.828Z,11.80
2019-02-17T15:21:42.973Z,11.80
2019-02-17T15:24:09.981Z,11.70
2019-02-17T15:26:38.633Z,11.80
2019-02-17T15:29:05.896Z,11.70
2019-02-17T15:31:33.595Z,11.80
2019-02-17T15:34:00.803Z,11.80
2019-02-17T15:36:27.945Z,11.80
2019-02-17T15:38:56.428Z,11.70
2019-02-17T15:41:23.462Z,11.70
2019-02-17T15:43:51.040Z,11.70
2019-02-17T15:46:18.025Z,11.70
2019-02-17T15:48:45.027Z,11.70
2019-02-17T15:51:12.131Z,11.80
2019-02-17T15:53:39.406Z,11.70
2019-02-17T15:56:06.388Z,11.70
2019-02-17T15:58:33.383Z,11.70
2019-02-17T16:01:01.231Z,11.70
2019-02-17T16:03:28.663Z,11.70
2019-02-17T16:05:56.047Z,11.70
2019-02-17T16:08:23.987Z,11.70
2019-02-17T16:10:51.296Z,11.70
2019-02-17T16:13:18.261Z,11.70
2019-02-17T16:15:45.373Z,11.60
2019-02-17T16:18:12.747Z,11.70
2019-02-17T16:20:39.948Z,11.60
2019-02-17T16:23:06.945Z,11.60
2019-02-17T16:25:34.211Z,11.60
2019-02-17T16:28:01.067Z,11.60
2019-02-17T16:30:28.651Z,11.60
2019-02-17T16:32:55.996Z,11.60
2019-02-17T16:35:22.872Z,11.50
2019-02-17T16:37:49.780Z,11.40
2019-02-17T16:40:16.771Z,11.30
2019-02-17T16:42:44.250Z,11.20
2019-02-17T16:45:11.369Z,11.20
2019-02-17T16:47:38.514Z,11.10
2019-02-17T16:50:07.515Z,11.10
2019-02-17T16:52:34.496Z,11.10
2019-02-17T16:55:01.617Z,11.10
2019-02-17T16:57:28.707Z,11.00
2019-02-17T16:59:56.390Z,10.90
2019-02-17T17:02:23.366Z,11.00
2019-02-17T17:04:50.762Z,10.90
2019-02-17T17:07:17.776Z,10.80
2019-02-17T17:09:45.032Z,10.70
2019-02-17T17:12:12.039Z,10.70
2019-02-17T17:14:39.036Z,10.60
2019-02-17T17:17:06.211Z,10.60
2019-02-17T17:19:33.125Z,10.60
2019-02-17T17:22:00.143Z,10.60
2019-02-17T17:24:27.059Z,10.60
2019-02-17T17:26:55.152Z,10.60
2019-02-17T17:29:22.468Z,10.60
2019-02-17T17:31:49.424Z,10.60
2019-02-17T17:34:16.703Z,10.60
2019-02-17T17:36:44.367Z,10.60
2019-02-17T17:39:11.667Z,10.50
2019-02-17T17:41:38.920Z,10.50
2019-02-17T17:44:05.943Z,10.40
2019-02-17T17:46:33.312Z,10.30
2019-02-17T17:49:00.525Z,10.30
2019-02-17T17:51:27.948Z,10.30
2019-02-17T17:53:55.031Z,10.20
2019-02-17T17:56:22.004Z,10.20
2019-02-17T17:58:49.079Z,10.20
2019-02-17T18:01:16.195Z,10.20
2019-02-17T18:03:44.512Z,10.20
2019-02-17T18:06:11.725Z,10.20
2019-02-17T18:08:38.966Z,10.20
2019-02-17T18:11:06.064Z,10.10
2019-02-17T18:13:33.549Z,10.00
2019-02-17T18:16:00.700Z,10.00
2019-02-17T18:18:28.116Z,10.00
2019-02-17T18:20:55.724Z,9.90
2019-02-17T18:23:22.735Z,9.90
2019-02-17T18:25:50.370Z,10.00
2019-02-17T18:28:17.880Z,9.90
2019-02-17T18:30:45.499Z,9.90
2019-02-17T18:33:12.432Z,9.80
2019-02-17T18:35:39.372Z,9.70
2019-02-17T18:38:06.658Z,9.70
2019-02-17T18:40:44.433Z,9.50
2019-02-17T18:43:03.996Z,9.50
2019-02-17T18:45:31.446Z,9.40
2019-02-17T18:47:59.627Z,9.50
2019-02-17T18:50:27.075Z,9.50
2019-02-17T18:52:55.260Z,9.30
2019-02-17T18:55:22.321Z,9.40
2019-02-17T18:57:51.280Z,9.20
2019-02-17T19:00:18.821Z,9.20
2019-02-17T19:02:45.877Z,9.20
2019-02-17T19:05:13.248Z,9.30
2019-02-17T19:07:40.387Z,9.50
2019-02-17T19:10:09.200Z,9.50
2019-02-17T19:12:36.240Z,9.50
2019-02-17T19:15:03.676Z,9.50
2019-02-17T19:17:30.513Z,9.60
2019-02-17T19:19:57.741Z,9.50
2019-02-17T19:22:25.353Z,9.50
2019-02-17T19:24:52.576Z,9.50
2019-02-17T19:27:19.467Z,9.50
2019-02-17T19:29:46.500Z,9.50
2019-02-17T19:32:13.444Z,9.50
2019-02-17T19:34:40.553Z,9.50
2019-02-17T19:37:07.808Z,9.50
2019-02-17T19:39:34.848Z,9.50
2019-02-17T19:42:01.931Z,9.40
2019-02-17T19:44:29.828Z,9.40
2019-02-17T19:46:56.851Z,9.50
2019-02-17T19:49:24.236Z,9.60
2019-02-17T19:51:51.740Z,9.60
2019-02-17T19:54:18.719Z,9.50
2019-02-17T19:56:46.692Z,9.50
2019-02-17T19:59:13.680Z,9.50
2019-02-17T20:01:40.684Z,9.50
2019-02-17T20:04:22.545Z,9.50
2019-02-17T20:06:49.548Z,9.60
2019-02-17T20:09:18.321Z,9.50
2019-02-17T20:11:46.159Z,9.40
2019-02-17T20:14:13.428Z,9.40
2019-02-17T20:16:40.541Z,9.50
2019-02-17T20:19:07.788Z,9.50
2019-02-17T20:21:34.767Z,9.50
2019-02-17T20:24:02.206Z,9.40
2019-02-17T20:26:29.182Z,9.40
2019-02-17T20:28:57.324Z,9.50
2019-02-17T20:31:26.184Z,9.50
2019-02-17T20:33:53.239Z,9.50
2019-02-17T20:36:20.716Z,9.50
2019-02-17T20:38:47.995Z,9.50
2019-02-17T20:41:15.500Z,9.50
2019-02-17T20:43:42.349Z,9.60
2019-02-17T20:46:09.264Z,9.50
2019-02-17T20:48:37.339Z,9.50
2019-02-17T20:51:05.340Z,9.50
2019-02-17T20:53:32.527Z,9.50
2019-02-17T20:55:59.960Z,9.40
2019-02-17T20:58:27.904Z,9.20
2019-02-17T21:00:56.068Z,9.10
2019-02-17T21:03:23.181Z,9.10
2019-02-17T21:05:50.655Z,9.10
2019-02-17T21:08:18.312Z,9.10
2019-02-17T21:10:45.903Z,9.00
2019-02-17T21:13:13.877Z,9.10
2019-02-17T21:15:41.420Z,9.20
2019-02-17T21:18:08.559Z,9.10
2019-02-17T21:20:36.080Z,9.20
2019-02-17T21:23:03.175Z,9.20
2019-02-17T21:25:30.376Z,9.10
2019-02-17T21:27:57.364Z,9.10
2019-02-17T21:30:24.363Z,9.00
2019-02-17T21:32:51.264Z,9.10
2019-02-17T21:35:18.317Z,9.10
2019-02-17T21:37:45.373Z,9.10
2019-02-17T21:40:12.687Z,9.10
2019-02-17T21:42:39.841Z,9.20
2019-02-17T21:45:08.456Z,9.10
2019-02-17T21:47:39.022Z,9.20
2019-02-17T21:50:07.082Z,9.20
2019-02-17T21:52:34.095Z,9.10
2019-02-17T21:55:01.103Z,9.10
2019-02-17T21:57:28.104Z,9.10
2019-02-17T21:59:56.805Z,8.80
2019-02-17T22:02:24.232Z,8.70
2019-02-17T22:04:51.272Z,8.60
2019-02-17T22:07:18.145Z,8.50
2019-02-17T22:09:45.006Z,8.40
2019-02-17T22:12:12.627Z,8.40
2019-02-17T22:14:39.744Z,8.20
2019-02-17T22:17:06.919Z,8.30
2019-02-17T22:19:34.120Z,8.50
2019-02-17T22:22:01.825Z,8.60
2019-02-17T22:24:28.886Z,8.60
2019-02-17T22:26:55.889Z,8.60
2019-02-17T22:29:22.895Z,8.60
2019-02-17T22:31:49.891Z,8.60
2019-02-17T22:34:17.947Z,8.50
2019-02-17T22:36:45.203Z,8.50
2019-02-17T22:39:12.063Z,8.40
2019-02-17T22:41:39.215Z,8.40
2019-02-17T22:44:06.340Z,8.50
2019-02-17T22:46:33.324Z,8.50
2019-02-17T22:49:00.319Z,8.60
2019-02-17T22:51:27.283Z,8.70
2019-02-17T22:53:55.245Z,8.60
2019-02-17T22:56:22.548Z,8.60
2019-02-17T22:58:49.859Z,8.50
2019-02-17T23:01:22.139Z,8.50
2019-02-17T23:03:49.368Z,8.40
2019-02-17T23:06:16.755Z,8.40
2019-02-17T23:08:43.775Z,8.40
2019-02-17T23:11:11.160Z,8.40
2019-02-17T23:13:38.293Z,8.60
2019-02-17T23:16:05.278Z,8.40
2019-02-17T23:18:32.396Z,8.40
2019-02-17T23:20:59.524Z,8.40
2019-02-17T23:23:26.812Z,8.50
2019-02-17T23:25:53.956Z,8.50
2019-02-17T23:28:21.515Z,8.60
2019-02-17T23:30:49.575Z,8.40
2019-02-17T23:33:16.730Z,8.40
2019-02-17T23:35:43.859Z,8.40
2019-02-17T23:38:10.868Z,8.40
2019-02-17T23:40:38.131Z,8.20
2019-02-17T23:43:05.232Z,8.20
2019-02-17T23:45:32.376Z,8.20
2019-02-17T23:47:59.643Z,8.20
2019-02-17T23:50:26.795Z,8.20
2019-02-17T23:52:54.626Z,8.20
2019-02-17T23:55:22.062Z,8.20
2019-02-17T23:57:49.700Z,8.10
